Park Hills, Kentucky
Current Conditions -  °F | °C
As of 3:13 PM on Saturday 20 Dec 2014 (Local Time) from KI69 Reporting Station
Overcast Overcast  
Wind Chill: 32°   Ceiling: 1800
Heat Index: 32°   Visibility: 10mi
Dew Point: 28°   Wind: 3mph
Humidity: 87%   Direction: 20°NNE
Pressure: 30.25"   Gusts: NA
Location:  39.0659°N, 84.5309°W
Report Text: KI69 202013Z AUTO 02003KT 10SM OVC018 00/M02 A3025 RMK AO1
Loading
Personal Weather Stations






























Interactive Weather Map New forecast layout! Learn more

10-Day Weather Forecast

Advertisements
Track Severe Weather on mobile